Victor, Washington
Current Conditions -  °F | °C
As of 11:28 AM on Friday 28 Nov 2014 (Local Time) from KTIW Reporting Station
Heavy Rain Heavy Rain  
Wind Chill: 38°   Ceiling: 500
Heat Index: 45°   Visibility: 1.2mi
Dew Point: 44°   Wind: 15mph
Humidity: 97%   Direction: 10°N
Pressure: 29.49"   Gusts: 24mph
Location:  47.2986°N, 122.616°W
Report Text: KTIW 281928Z 01013G21KT 1 1/4SM +RA BR BKN005 OVC015 07/07 A2949 RMK AO2 WSHFT 1908 P0011 T00720067
Loading
Personal Weather Stations






























Interactive Weather Map New forecast layout! Learn more

10-Day Weather Forecast

Advertisements
Track Severe Weather on mobile